sensor_id;sensor_type;location;lat;lon;timestamp;P1;durP1;ratioP1;P2;durP2;ratioP2
40355;SDS011;26061;50.044;19.930;2022-10-17T00:00:47;22.85;;;14.25;;
40355;SDS011;26061;50.044;19.930;2022-10-17T00:03:28;23.20;;;14.63;;
40355;SDS011;26061;50.044;19.930;2022-10-17T00:05:54;22.23;;;15.18;;
40355;SDS011;26061;50.044;19.930;2022-10-17T00:08:20;30.05;;;15.45;;
40355;SDS011;26061;50.044;19.930;2022-10-17T00:10:54;24.45;;;15.32;;
40355;SDS011;26061;50.044;19.930;2022-10-17T00:13:27;26.63;;;15.45;;
40355;SDS011;26061;50.044;19.930;2022-10-17T00:15:54;24.05;;;15.52;;
40355;SDS011;26061;50.044;19.930;2022-10-17T00:18:20;25.20;;;16.17;;
40355;SDS011;26061;50.044;19.930;2022-10-17T00:20:46;24.63;;;15.77;;
40355;SDS011;26061;50.044;19.930;2022-10-17T00:23:11;22.13;;;15.20;;
40355;SDS011;26061;50.044;19.930;2022-10-17T00:25:37;24.15;;;15.27;;
40355;SDS011;26061;50.044;19.930;2022-10-17T00:28:03;29.92;;;14.50;;
40355;SDS011;26061;50.044;19.930;2022-10-17T00:30:28;26.30;;;16.63;;
40355;SDS011;26061;50.044;19.930;2022-10-17T00:32:54;26.60;;;16.92;;
40355;SDS011;26061;50.044;19.930;2022-10-17T00:35:20;23.88;;;15.45;;
40355;SDS011;26061;50.044;19.930;2022-10-17T00:37:45;26.60;;;14.90;;
40355;SDS011;26061;50.044;19.930;2022-10-17T00:40:11;28.77;;;16.67;;
40355;SDS011;26061;50.044;19.930;2022-10-17T00:42:38;26.73;;;17.10;;
40355;SDS011;26061;50.044;19.930;2022-10-17T00:47:38;30.77;;;18.27;;
40355;SDS011;26061;50.044;19.930;2022-10-17T00:50:05;25.60;;;16.53;;
40355;SDS011;26061;50.044;19.930;2022-10-17T00:52:32;23.33;;;15.07;;
40355;SDS011;26061;50.044;19.930;2022-10-17T00:55:02;20.92;;;14.20;;
40355;SDS011;26061;50.044;19.930;2022-10-17T00:57:36;34.90;;;20.93;;
40355;SDS011;26061;50.044;19.930;2022-10-17T01:00:05;34.70;;;21.30;;
40355;SDS011;26061;50.044;19.930;2022-10-17T01:02:34;36.90;;;22.23;;
40355;SDS011;26061;50.044;19.930;2022-10-17T01:04:59;36.22;;;22.90;;
40355;SDS011;26061;50.044;19.930;2022-10-17T01:07:26;40.70;;;23.98;;
40355;SDS011;26061;50.044;19.930;2022-10-17T01:09:53;44.00;;;24.98;;
40355;SDS011;26061;50.044;19.930;2022-10-17T01:15:00;42.15;;;25.05;;
40355;SDS011;26061;50.044;19.930;2022-10-17T01:32:00;44.50;;;25.30;;
40355;SDS011;26061;50.044;19.930;2022-10-17T01:37:07;44.03;;;26.48;;
40355;SDS011;26061;50.044;19.930;2022-10-17T01:39:43;42.20;;;26.13;;
40355;SDS011;26061;50.044;19.930;2022-10-17T01:47:31;36.70;;;22.65;;
40355;SDS011;26061;50.044;19.930;2022-10-17T01:50:02;39.83;;;22.13;;
40355;SDS011;26061;50.044;19.930;2022-10-17T01:52:37;46.25;;;25.77;;
40355;SDS011;26061;50.044;19.930;2022-10-17T01:55:08;42.88;;;24.88;;
40355;SDS011;26061;50.044;19.930;2022-10-17T01:57:42;42.35;;;25.17;;
40355;SDS011;26061;50.044;19.930;2022-10-17T02:00:14;41.80;;;25.75;;
40355;SDS011;26061;50.044;19.930;2022-10-17T02:02:47;47.30;;;28.08;;
40355;SDS011;26061;50.044;19.930;2022-10-17T02:05:16;41.40;;;26.27;;
40355;SDS011;26061;50.044;19.930;2022-10-17T02:07:46;43.15;;;26.05;;
40355;SDS011;26061;50.044;19.930;2022-10-17T02:10:15;40.72;;;25.80;;
40355;SDS011;26061;50.044;19.930;2022-10-17T02:23:37;43.47;;;25.63;;
40355;SDS011;26061;50.044;19.930;2022-10-17T02:26:24;43.42;;;25.85;;
40355;SDS011;26061;50.044;19.930;2022-10-17T02:31:46;37.65;;;23.65;;
40355;SDS011;26061;50.044;19.930;2022-10-17T02:34:20;41.85;;;25.10;;
40355;SDS011;26061;50.044;19.930;2022-10-17T02:36:55;43.33;;;25.35;;
40355;SDS011;26061;50.044;19.930;2022-10-17T02:39:25;40.20;;;25.38;;
40355;SDS011;26061;50.044;19.930;2022-10-17T02:41:52;41.80;;;24.77;;
40355;SDS011;26061;50.044;19.930;2022-10-17T02:44:21;43.33;;;25.52;;
40355;SDS011;26061;50.044;19.930;2022-10-17T02:46:50;42.33;;;25.90;;
40355;SDS011;26061;50.044;19.930;2022-10-17T02:49:27;48.67;;;27.83;;
40355;SDS011;26061;50.044;19.930;2022-10-17T02:52:00;41.58;;;26.42;;
40355;SDS011;26061;50.044;19.930;2022-10-17T02:54:28;45.80;;;26.87;;
40355;SDS011;26061;50.044;19.930;2022-10-17T02:57:00;43.70;;;27.13;;
40355;SDS011;26061;50.044;19.930;2022-10-17T02:59:31;48.58;;;27.92;;
40355;SDS011;26061;50.044;19.930;2022-10-17T03:02:01;45.95;;;28.05;;
40355;SDS011;26061;50.044;19.930;2022-10-17T03:04:30;49.85;;;28.27;;
40355;SDS011;26061;50.044;19.930;2022-10-17T03:06:56;44.85;;;27.98;;
40355;SDS011;26061;50.044;19.930;2022-10-17T03:09:22;50.28;;;27.23;;
40355;SDS011;26061;50.044;19.930;2022-10-17T03:11:47;46.58;;;27.67;;
40355;SDS011;26061;50.044;19.930;2022-10-17T03:14:13;50.55;;;27.77;;
40355;SDS011;26061;50.044;19.930;2022-10-17T03:16:39;49.35;;;28.00;;
40355;SDS011;26061;50.044;19.930;2022-10-17T03:19:04;45.30;;;27.15;;
40355;SDS011;26061;50.044;19.930;2022-10-17T03:21:30;48.05;;;27.35;;
40355;SDS011;26061;50.044;19.930;2022-10-17T03:23:56;45.72;;;28.05;;
40355;SDS011;26061;50.044;19.930;2022-10-17T03:26:21;41.03;;;27.30;;
40355;SDS011;26061;50.044;19.930;2022-10-17T03:28:47;44.95;;;27.48;;
40355;SDS011;26061;50.044;19.930;2022-10-17T03:31:14;45.75;;;28.27;;
40355;SDS011;26061;50.044;19.930;2022-10-17T03:33:41;46.95;;;27.73;;
40355;SDS011;26061;50.044;19.930;2022-10-17T03:36:07;44.00;;;26.88;;
40355;SDS011;26061;50.044;19.930;2022-10-17T03:38:34;45.58;;;27.63;;
40355;SDS011;26061;50.044;19.930;2022-10-17T03:41:01;46.05;;;26.35;;
40355;SDS011;26061;50.044;19.930;2022-10-17T03:43:27;44.97;;;28.40;;
40355;SDS011;26061;50.044;19.930;2022-10-17T03:45:53;46.88;;;27.92;;
40355;SDS011;26061;50.044;19.930;2022-10-17T03:48:19;43.80;;;26.48;;
40355;SDS011;26061;50.044;19.930;2022-10-17T03:50:45;47.22;;;27.77;;
40355;SDS011;26061;50.044;19.930;2022-10-17T03:53:10;48.53;;;28.05;;
40355;SDS011;26061;50.044;19.930;2022-10-17T03:55:36;44.75;;;29.02;;
40355;SDS011;26061;50.044;19.930;2022-10-17T03:58:02;47.17;;;28.55;;
40355;SDS011;26061;50.044;19.930;2022-10-17T04:00:27;52.13;;;28.20;;
40355;SDS011;26061;50.044;19.930;2022-10-17T04:02:53;48.65;;;29.02;;
40355;SDS011;26061;50.044;19.930;2022-10-17T04:05:18;46.45;;;28.50;;
40355;SDS011;26061;50.044;19.930;2022-10-17T04:07:44;50.40;;;29.17;;
40355;SDS011;26061;50.044;19.930;2022-10-17T04:10:10;51.22;;;28.80;;
40355;SDS011;26061;50.044;19.930;2022-10-17T04:12:35;46.92;;;28.58;;
40355;SDS011;26061;50.044;19.930;2022-10-17T04:15:01;48.53;;;28.10;;
40355;SDS011;26061;50.044;19.930;2022-10-17T04:17:28;48.83;;;29.20;;
40355;SDS011;26061;50.044;19.930;2022-10-17T04:19:55;47.22;;;27.65;;
40355;SDS011;26061;50.044;19.930;2022-10-17T04:22:20;52.80;;;28.57;;
40355;SDS011;26061;50.044;19.930;2022-10-17T04:24:46;48.58;;;27.83;;
40355;SDS011;26061;50.044;19.930;2022-10-17T04:27:12;49.88;;;28.98;;
40355;SDS011;26061;50.044;19.930;2022-10-17T04:29:38;45.23;;;28.30;;
40355;SDS011;26061;50.044;19.930;2022-10-17T04:32:05;48.92;;;28.02;;
40355;SDS011;26061;50.044;19.930;2022-10-17T04:34:30;47.57;;;27.90;;
40355;SDS011;26061;50.044;19.930;2022-10-17T04:36:56;54.58;;;29.00;;
40355;SDS011;26061;50.044;19.930;2022-10-17T04:39:22;54.33;;;30.00;;
40355;SDS011;26061;50.044;19.930;2022-10-17T04:41:48;49.63;;;29.13;;
40355;SDS011;26061;50.044;19.930;2022-10-17T04:44:13;56.42;;;30.80;;
40355;SDS011;26061;50.044;19.930;2022-10-17T04:46:39;50.33;;;28.10;;
40355;SDS011;26061;50.044;19.930;2022-10-17T04:49:04;49.08;;;29.38;;
40355;SDS011;26061;50.044;19.930;2022-10-17T04:51:30;51.73;;;30.37;;
40355;SDS011;26061;50.044;19.930;2022-10-17T04:53:56;48.10;;;28.52;;
40355;SDS011;26061;50.044;19.930;2022-10-17T04:56:22;55.67;;;30.52;;
40355;SDS011;26061;50.044;19.930;2022-10-17T04:58:48;50.77;;;28.13;;
40355;SDS011;26061;50.044;19.930;2022-10-17T05:01:18;52.33;;;29.20;;
40355;SDS011;26061;50.044;19.930;2022-10-17T05:03:45;48.43;;;28.30;;
40355;SDS011;26061;50.044;19.930;2022-10-17T05:06:12;50.00;;;29.07;;
40355;SDS011;26061;50.044;19.930;2022-10-17T05:08:42;48.60;;;28.07;;
40355;SDS011;26061;50.044;19.930;2022-10-17T05:11:15;56.93;;;30.83;;
40355;SDS011;26061;50.044;19.930;2022-10-17T05:13:43;48.13;;;26.97;;
40355;SDS011;26061;50.044;19.930;2022-10-17T05:16:09;48.72;;;28.38;;
40355;SDS011;26061;50.044;19.930;2022-10-17T05:18:35;46.70;;;27.87;;
40355;SDS011;26061;50.044;19.930;2022-10-17T05:21:02;49.80;;;28.57;;
40355;SDS011;26061;50.044;19.930;2022-10-17T05:23:28;48.13;;;28.43;;
40355;SDS011;26061;50.044;19.930;2022-10-17T05:25:55;48.83;;;28.40;;
40355;SDS011;26061;50.044;19.930;2022-10-17T05:28:21;53.40;;;29.23;;
40355;SDS011;26061;50.044;19.930;2022-10-17T05:30:47;51.77;;;29.37;;
40355;SDS011;26061;50.044;19.930;2022-10-17T05:33:14;47.63;;;28.58;;
40355;SDS011;26061;50.044;19.930;2022-10-17T05:35:39;48.40;;;28.67;;
40355;SDS011;26061;50.044;19.930;2022-10-17T05:38:05;53.83;;;30.57;;
40355;SDS011;26061;50.044;19.930;2022-10-17T05:40:31;54.88;;;29.42;;
40355;SDS011;26061;50.044;19.930;2022-10-17T05:42:56;45.33;;;27.17;;
40355;SDS011;26061;50.044;19.930;2022-10-17T05:45:22;45.57;;;26.77;;
40355;SDS011;26061;50.044;19.930;2022-10-17T05:47:47;48.85;;;27.88;;
40355;SDS011;26061;50.044;19.930;2022-10-17T05:50:13;46.08;;;26.00;;
40355;SDS011;26061;50.044;19.930;2022-10-17T05:52:39;41.63;;;25.23;;
40355;SDS011;26061;50.044;19.930;2022-10-17T05:55:05;43.67;;;25.07;;
40355;SDS011;26061;50.044;19.930;2022-10-17T05:57:31;45.07;;;27.17;;
40355;SDS011;26061;50.044;19.930;2022-10-17T05:59:57;44.37;;;26.37;;
40355;SDS011;26061;50.044;19.930;2022-10-17T06:02:22;49.13;;;26.38;;
40355;SDS011;26061;50.044;19.930;2022-10-17T06:04:48;45.53;;;28.02;;
40355;SDS011;26061;50.044;19.930;2022-10-17T06:07:14;48.78;;;27.08;;
40355;SDS011;26061;50.044;19.930;2022-10-17T06:09:40;40.85;;;26.23;;
40355;SDS011;26061;50.044;19.930;2022-10-17T06:12:06;47.22;;;26.55;;
40355;SDS011;26061;50.044;19.930;2022-10-17T06:14:32;43.60;;;25.40;;
40355;SDS011;26061;50.044;19.930;2022-10-17T06:16:58;41.25;;;24.63;;
40355;SDS011;26061;50.044;19.930;2022-10-17T06:19:24;44.30;;;25.50;;
40355;SDS011;26061;50.044;19.930;2022-10-17T06:21:50;42.65;;;26.42;;
40355;SDS011;26061;50.044;19.930;2022-10-17T06:24:15;42.37;;;24.83;;
40355;SDS011;26061;50.044;19.930;2022-10-17T06:26:41;47.15;;;25.42;;
40355;SDS011;26061;50.044;19.930;2022-10-17T06:29:07;43.67;;;24.00;;
40355;SDS011;26061;50.044;19.930;2022-10-17T06:31:33;39.97;;;24.25;;
40355;SDS011;26061;50.044;19.930;2022-10-17T06:33:58;38.22;;;24.42;;
40355;SDS011;26061;50.044;19.930;2022-10-17T06:36:24;36.33;;;24.13;;
40355;SDS011;26061;50.044;19.930;2022-10-17T06:38:50;46.03;;;24.30;;
40355;SDS011;26061;50.044;19.930;2022-10-17T06:41:15;42.72;;;24.08;;
40355;SDS011;26061;50.044;19.930;2022-10-17T06:43:44;41.72;;;25.00;;
40355;SDS011;26061;50.044;19.930;2022-10-17T06:46:11;43.08;;;23.77;;
40355;SDS011;26061;50.044;19.930;2022-10-17T06:48:38;39.13;;;23.83;;
40355;SDS011;26061;50.044;19.930;2022-10-17T06:51:04;36.85;;;23.17;;
40355;SDS011;26061;50.044;19.930;2022-10-17T06:53:32;34.78;;;21.90;;
40355;SDS011;26061;50.044;19.930;2022-10-17T06:55:59;32.50;;;22.15;;
40355;SDS011;26061;50.044;19.930;2022-10-17T06:58:29;39.75;;;23.23;;
40355;SDS011;26061;50.044;19.930;2022-10-17T07:00:59;31.48;;;19.65;;
40355;SDS011;26061;50.044;19.930;2022-10-17T07:03:26;34.00;;;20.02;;
40355;SDS011;26061;50.044;19.930;2022-10-17T07:05:53;28.50;;;18.85;;
40355;SDS011;26061;50.044;19.930;2022-10-17T07:08:19;24.92;;;16.17;;
40355;SDS011;26061;50.044;19.930;2022-10-17T07:10:45;26.55;;;16.13;;
40355;SDS011;26061;50.044;19.930;2022-10-17T07:13:11;23.50;;;15.10;;
40355;SDS011;26061;50.044;19.930;2022-10-17T07:15:37;20.67;;;14.32;;
40355;SDS011;26061;50.044;19.930;2022-10-17T07:18:03;20.80;;;13.38;;
40355;SDS011;26061;50.044;19.930;2022-10-17T07:20:29;18.33;;;13.18;;
40355;SDS011;26061;50.044;19.930;2022-10-17T07:22:55;19.60;;;14.38;;
40355;SDS011;26061;50.044;19.930;2022-10-17T07:25:21;20.20;;;12.93;;
40355;SDS011;26061;50.044;19.930;2022-10-17T07:27:50;19.55;;;13.25;;
40355;SDS011;26061;50.044;19.930;2022-10-17T07:30:16;18.58;;;12.57;;
40355;SDS011;26061;50.044;19.930;2022-10-17T07:32:42;21.63;;;12.38;;
40355;SDS011;26061;50.044;19.930;2022-10-17T07:35:08;16.23;;;12.00;;
40355;SDS011;26061;50.044;19.930;2022-10-17T07:37:35;12.05;;;10.45;;
40355;SDS011;26061;50.044;19.930;2022-10-17T07:40:01;18.20;;;11.27;;
40355;SDS011;26061;50.044;19.930;2022-10-17T07:42:27;14.05;;;10.40;;
40355;SDS011;26061;50.044;19.930;2022-10-17T07:44:53;11.30;;;9.43;;
40355;SDS011;26061;50.044;19.930;2022-10-17T07:47:19;11.55;;;9.27;;
40355;SDS011;26061;50.044;19.930;2022-10-17T07:49:45;12.77;;;10.43;;
40355;SDS011;26061;50.044;19.930;2022-10-17T07:52:11;12.07;;;10.10;;
40355;SDS011;26061;50.044;19.930;2022-10-17T07:54:38;14.38;;;10.10;;
40355;SDS011;26061;50.044;19.930;2022-10-17T07:57:04;12.38;;;9.88;;
40355;SDS011;26061;50.044;19.930;2022-10-17T07:59:33;12.65;;;9.55;;
40355;SDS011;26061;50.044;19.930;2022-10-17T08:02:01;13.18;;;9.13;;
40355;SDS011;26061;50.044;19.930;2022-10-17T08:04:27;14.38;;;9.25;;
40355;SDS011;26061;50.044;19.930;2022-10-17T08:06:52;11.18;;;9.32;;
40355;SDS011;26061;50.044;19.930;2022-10-17T08:09:18;9.18;;;8.18;;
40355;SDS011;26061;50.044;19.930;2022-10-17T08:11:44;10.95;;;8.55;;
40355;SDS011;26061;50.044;19.930;2022-10-17T08:14:10;10.25;;;8.43;;
40355;SDS011;26061;50.044;19.930;2022-10-17T08:16:37;12.18;;;9.18;;
40355;SDS011;26061;50.044;19.930;2022-10-17T08:19:02;11.95;;;7.85;;
40355;SDS011;26061;50.044;19.930;2022-10-17T08:21:29;10.45;;;8.40;;
40355;SDS011;26061;50.044;19.930;2022-10-17T08:23:55;11.40;;;9.00;;
40355;SDS011;26061;50.044;19.930;2022-10-17T08:26:21;10.32;;;7.55;;
40355;SDS011;26061;50.044;19.930;2022-10-17T08:28:47;11.48;;;8.05;;
40355;SDS011;26061;50.044;19.930;2022-10-17T08:31:14;10.80;;;8.18;;
40355;SDS011;26061;50.044;19.930;2022-10-17T08:33:44;17.30;;;15.88;;
40355;SDS011;26061;50.044;19.930;2022-10-17T08:36:12;11.73;;;10.57;;
40355;SDS011;26061;50.044;19.930;2022-10-17T08:38:39;15.75;;;14.43;;
40355;SDS011;26061;50.044;19.930;2022-10-17T08:41:12;13.77;;;12.60;;
40355;SDS011;26061;50.044;19.930;2022-10-17T08:46:50;11.55;;;8.00;;
40355;SDS011;26061;50.044;19.930;2022-10-17T08:52:02;16.63;;;15.15;;
40355;SDS011;26061;50.044;19.930;2022-10-17T08:54:42;44.08;;;41.47;;
40355;SDS011;26061;50.044;19.930;2022-10-17T08:57:11;60.20;;;57.00;;
40355;SDS011;26061;50.044;19.930;2022-10-17T08:59:39;89.82;;;85.07;;
40355;SDS011;26061;50.044;19.930;2022-10-17T09:02:19;275.20;;;262.20;;
40355;SDS011;26061;50.044;19.930;2022-10-17T09:05:29;117.43;;;111.68;;
40355;SDS011;26061;50.044;19.930;2022-10-17T09:17:03;71.82;;;67.97;;
40355;SDS011;26061;50.044;19.930;2022-10-17T09:19:43;15.20;;;10.82;;
40355;SDS011;26061;50.044;19.930;2022-10-17T09:22:18;14.60;;;13.38;;
40355;SDS011;26061;50.044;19.930;2022-10-17T09:24:52;11.45;;;8.85;;
40355;SDS011;26061;50.044;19.930;2022-10-17T09:32:43;99.63;;;94.22;;
40355;SDS011;26061;50.044;19.930;2022-10-17T09:35:15;139.02;;;132.15;;
40355;SDS011;26061;50.044;19.930;2022-10-17T09:37:41;166.65;;;158.40;;
40355;SDS011;26061;50.044;19.930;2022-10-17T09:40:12;150.35;;;143.02;;
40355;SDS011;26061;50.044;19.930;2022-10-17T09:42:44;232.10;;;221.10;;
40355;SDS011;26061;50.044;19.930;2022-10-17T09:47:49;677.88;;;635.05;;
40355;SDS011;26061;50.044;19.930;2022-10-17T09:50:29;1999.90;;;999.90;;
40355;SDS011;26061;50.044;19.930;2022-10-17T09:52:59;1999.90;;;999.90;;
40355;SDS011;26061;50.044;19.930;2022-10-17T09:58:06;1999.90;;;999.90;;
40355;SDS011;26061;50.044;19.930;2022-10-17T10:00:38;100.45;;;95.45;;
40355;SDS011;26061;50.044;19.930;2022-10-17T10:05:37;1999.90;;;999.90;;
40355;SDS011;26061;50.044;19.930;2022-10-17T10:08:26;1999.90;;;999.90;;
40355;SDS011;26061;50.044;19.930;2022-10-17T10:11:03;1017.33;;;936.13;;
40355;SDS011;26061;50.044;19.930;2022-10-17T10:13:31;1999.90;;;999.90;;
40355;SDS011;26061;50.044;19.930;2022-10-17T10:19:02;1999.90;;;999.90;;
40355;SDS011;26061;50.044;19.930;2022-10-17T10:22:04;1999.90;;;999.90;;
40355;SDS011;26061;50.044;19.930;2022-10-17T10:24:38;576.10;;;508.65;;
40355;SDS011;26061;50.044;19.930;2022-10-17T10:27:04;1074.97;;;986.45;;
40355;SDS011;26061;50.044;19.930;2022-10-17T10:29:38;1326.18;;;997.55;;
40355;SDS011;26061;50.044;19.930;2022-10-17T10:35:05;1087.00;;;994.33;;
40355;SDS011;26061;50.044;19.930;2022-10-17T10:37:41;1028.22;;;944.80;;
40355;SDS011;26061;50.044;19.930;2022-10-17T10:46:16;1999.90;;;999.90;;
40355;SDS011;26061;50.044;19.930;2022-10-17T10:48:54;1999.90;;;999.90;;
40355;SDS011;26061;50.044;19.930;2022-10-17T10:51:34;1999.90;;;999.90;;
40355;SDS011;26061;50.044;19.930;2022-10-17T10:54:07;1999.90;;;999.90;;
40355;SDS011;26061;50.044;19.930;2022-10-17T10:56:37;1999.90;;;999.90;;
40355;SDS011;26061;50.044;19.930;2022-10-17T11:01:53;1999.90;;;999.90;;
40355;SDS011;26061;50.044;19.930;2022-10-17T11:07:06;1999.90;;;999.90;;
40355;SDS011;26061;50.044;19.930;2022-10-17T11:12:35;1999.90;;;999.90;;
40355;SDS011;26061;50.044;19.930;2022-10-17T11:15:20;1999.90;;;999.90;;
40355;SDS011;26061;50.044;19.930;2022-10-17T11:18:10;1999.90;;;999.90;;
40355;SDS011;26061;50.044;19.930;2022-10-17T11:20:50;1999.90;;;999.90;;
40355;SDS011;26061;50.044;19.930;2022-10-17T11:26:04;1999.90;;;999.90;;
40355;SDS011;26061;50.044;19.930;2022-10-17T11:28:35;1999.90;;;999.90;;
40355;SDS011;26061;50.044;19.930;2022-10-17T11:33:28;406.17;;;368.77;;
40355;SDS011;26061;50.044;19.930;2022-10-17T11:36:00;1032.43;;;950.35;;
40355;SDS011;26061;50.044;19.930;2022-10-17T11:41:04;1999.90;;;999.90;;
40355;SDS011;26061;50.044;19.930;2022-10-17T11:43:34;1116.47;;;999.90;;
40355;SDS011;26061;50.044;19.930;2022-10-17T11:46:04;1999.90;;;999.90;;
40355;SDS011;26061;50.044;19.930;2022-10-17T11:48:41;1999.90;;;999.90;;
40355;SDS011;26061;50.044;19.930;2022-10-17T11:51:17;1999.90;;;999.90;;
40355;SDS011;26061;50.044;19.930;2022-10-17T11:56:43;1999.90;;;999.90;;
40355;SDS011;26061;50.044;19.930;2022-10-17T12:02:22;1999.90;;;999.90;;
40355;SDS011;26061;50.044;19.930;2022-10-17T12:05:07;1999.90;;;999.90;;
40355;SDS011;26061;50.044;19.930;2022-10-17T12:07:57;1999.90;;;999.90;;
40355;SDS011;26061;50.044;19.930;2022-10-17T12:15:56;1064.38;;;975.58;;
40355;SDS011;26061;50.044;19.930;2022-10-17T12:18:38;1078.13;;;988.65;;
40355;SDS011;26061;50.044;19.930;2022-10-17T12:21:03;768.33;;;720.85;;
40355;SDS011;26061;50.044;19.930;2022-10-17T12:23:29;752.58;;;705.95;;
40355;SDS011;26061;50.044;19.930;2022-10-17T12:26:03;848.17;;;790.45;;
40355;SDS011;26061;50.044;19.930;2022-10-17T12:28:32;981.97;;;909.15;;
40355;SDS011;26061;50.044;19.930;2022-10-17T12:38:51;708.17;;;666.30;;
40355;SDS011;26061;50.044;19.930;2022-10-17T12:49:23;760.78;;;713.63;;
40355;SDS011;26061;50.044;19.930;2022-10-17T12:55:13;503.27;;;477.73;;
40355;SDS011;26061;50.044;19.930;2022-10-17T13:00:35;278.27;;;265.90;;
40355;SDS011;26061;50.044;19.930;2022-10-17T13:03:21;285.25;;;272.40;;
40355;SDS011;26061;50.044;19.930;2022-10-17T13:05:59;240.98;;;228.93;;
40355;SDS011;26061;50.044;19.930;2022-10-17T13:08:34;145.30;;;135.43;;
40355;SDS011;26061;50.044;19.930;2022-10-17T13:11:07;127.55;;;121.40;;
40355;SDS011;26061;50.044;19.930;2022-10-17T13:13:37;203.45;;;191.93;;
40355;SDS011;26061;50.044;19.930;2022-10-17T13:16:28;34.53;;;32.22;;
40355;SDS011;26061;50.044;19.930;2022-10-17T13:18:57;7.95;;;7.13;;
40355;SDS011;26061;50.044;19.930;2022-10-17T13:21:23;11.93;;;6.38;;
40355;SDS011;26061;50.044;19.930;2022-10-17T13:23:49;8.65;;;6.47;;
40355;SDS011;26061;50.044;19.930;2022-10-17T13:26:21;11.65;;;6.40;;
40355;SDS011;26061;50.044;19.930;2022-10-17T13:31:38;10.63;;;5.90;;
40355;SDS011;26061;50.044;19.930;2022-10-17T13:34:13;8.90;;;6.30;;
40355;SDS011;26061;50.044;19.930;2022-10-17T13:36:41;6.97;;;5.65;;
40355;SDS011;26061;50.044;19.930;2022-10-17T13:39:08;9.68;;;5.22;;
40355;SDS011;26061;50.044;19.930;2022-10-17T13:41:38;6.75;;;5.47;;
40355;SDS011;26061;50.044;19.930;2022-10-17T13:44:26;8.57;;;5.38;;
40355;SDS011;26061;50.044;19.930;2022-10-17T13:46:52;9.32;;;5.93;;
40355;SDS011;26061;50.044;19.930;2022-10-17T13:49:19;9.23;;;5.40;;
40355;SDS011;26061;50.044;19.930;2022-10-17T13:51:49;7.28;;;5.47;;
40355;SDS011;26061;50.044;19.930;2022-10-17T13:54:37;9.73;;;5.40;;
40355;SDS011;26061;50.044;19.930;2022-10-17T13:57:16;8.45;;;5.25;;
40355;SDS011;26061;50.044;19.930;2022-10-17T14:00:25;6.53;;;5.70;;
40355;SDS011;26061;50.044;19.930;2022-10-17T14:02:45;9.40;;;5.60;;
40355;SDS011;26061;50.044;19.930;2022-10-17T14:07:53;9.57;;;4.90;;
40355;SDS011;26061;50.044;19.930;2022-10-17T14:10:32;9.00;;;5.40;;
40355;SDS011;26061;50.044;19.930;2022-10-17T14:13:01;8.27;;;5.32;;
40355;SDS011;26061;50.044;19.930;2022-10-17T14:15:29;6.68;;;5.07;;
40355;SDS011;26061;50.044;19.930;2022-10-17T14:18:03;7.30;;;4.63;;
40355;SDS011;26061;50.044;19.930;2022-10-17T14:20:30;8.38;;;4.95;;
40355;SDS011;26061;50.044;19.930;2022-10-17T14:22:58;11.20;;;5.28;;
40355;SDS011;26061;50.044;19.930;2022-10-17T14:25:31;7.03;;;5.32;;
40355;SDS011;26061;50.044;19.930;2022-10-17T14:33:01;6.13;;;5.18;;
40355;SDS011;26061;50.044;19.930;2022-10-17T14:35:29;7.88;;;5.07;;
40355;SDS011;26061;50.044;19.930;2022-10-17T14:37:57;7.72;;;5.15;;
40355;SDS011;26061;50.044;19.930;2022-10-17T14:40:25;8.20;;;5.30;;
40355;SDS011;26061;50.044;19.930;2022-10-17T14:42:53;9.60;;;5.38;;
40355;SDS011;26061;50.044;19.930;2022-10-17T14:45:32;8.35;;;5.18;;
40355;SDS011;26061;50.044;19.930;2022-10-17T14:48:14;9.32;;;5.78;;
40355;SDS011;26061;50.044;19.930;2022-10-17T14:51:03;7.45;;;5.07;;
40355;SDS011;26061;50.044;19.930;2022-10-17T14:53:40;11.98;;;6.30;;
40355;SDS011;26061;50.044;19.930;2022-10-17T14:56:26;9.38;;;5.53;;
40355;SDS011;26061;50.044;19.930;2022-10-17T14:58:58;7.93;;;5.45;;
40355;SDS011;26061;50.044;19.930;2022-10-17T15:01:24;10.15;;;5.82;;
40355;SDS011;26061;50.044;19.930;2022-10-17T15:03:49;11.40;;;5.80;;
40355;SDS011;26061;50.044;19.930;2022-10-17T15:06:16;9.45;;;6.25;;
40355;SDS011;26061;50.044;19.930;2022-10-17T15:08:48;8.02;;;6.07;;
40355;SDS011;26061;50.044;19.930;2022-10-17T15:11:14;9.80;;;6.00;;
40355;SDS011;26061;50.044;19.930;2022-10-17T15:13:40;8.73;;;6.05;;
40355;SDS011;26061;50.044;19.930;2022-10-17T15:16:12;7.05;;;6.32;;
40355;SDS011;26061;50.044;19.930;2022-10-17T15:18:42;12.90;;;8.60;;
40355;SDS011;26061;50.044;19.930;2022-10-17T15:21:14;13.20;;;8.95;;
40355;SDS011;26061;50.044;19.930;2022-10-17T15:23:41;12.98;;;8.57;;
40355;SDS011;26061;50.044;19.930;2022-10-17T15:26:10;12.35;;;7.68;;
40355;SDS011;26061;50.044;19.930;2022-10-17T15:28:39;12.10;;;7.00;;
40355;SDS011;26061;50.044;19.930;2022-10-17T15:31:04;11.77;;;6.82;;
40355;SDS011;26061;50.044;19.930;2022-10-17T15:33:30;10.57;;;6.25;;
40355;SDS011;26061;50.044;19.930;2022-10-17T15:35:55;12.57;;;6.80;;
40355;SDS011;26061;50.044;19.930;2022-10-17T15:38:21;12.57;;;5.60;;
40355;SDS011;26061;50.044;19.930;2022-10-17T15:40:46;8.38;;;5.85;;
40355;SDS011;26061;50.044;19.930;2022-10-17T15:43:15;10.90;;;5.82;;
40355;SDS011;26061;50.044;19.930;2022-10-17T15:45:40;10.13;;;6.40;;
40355;SDS011;26061;50.044;19.930;2022-10-17T15:48:06;10.00;;;7.05;;
40355;SDS011;26061;50.044;19.930;2022-10-17T15:50:38;10.63;;;7.47;;
40355;SDS011;26061;50.044;19.930;2022-10-17T15:53:04;10.32;;;6.90;;
40355;SDS011;26061;50.044;19.930;2022-10-17T15:55:35;15.15;;;7.45;;
40355;SDS011;26061;50.044;19.930;2022-10-17T15:58:01;21.98;;;8.30;;
40355;SDS011;26061;50.044;19.930;2022-10-17T16:00:26;10.82;;;7.22;;
40355;SDS011;26061;50.044;19.930;2022-10-17T16:02:52;11.63;;;7.60;;
40355;SDS011;26061;50.044;19.930;2022-10-17T16:05:21;12.07;;;7.95;;
40355;SDS011;26061;50.044;19.930;2022-10-17T16:07:49;11.15;;;8.25;;
40355;SDS011;26061;50.044;19.930;2022-10-17T16:10:16;18.60;;;8.88;;
40355;SDS011;26061;50.044;19.930;2022-10-17T16:12:42;17.50;;;9.35;;
40355;SDS011;26061;50.044;19.930;2022-10-17T16:15:15;15.93;;;8.52;;
40355;SDS011;26061;50.044;19.930;2022-10-17T16:17:44;14.10;;;9.20;;
40355;SDS011;26061;50.044;19.930;2022-10-17T16:20:10;15.68;;;9.85;;
40355;SDS011;26061;50.044;19.930;2022-10-17T16:22:37;17.00;;;10.18;;
40355;SDS011;26061;50.044;19.930;2022-10-17T16:25:16;15.80;;;10.68;;
40355;SDS011;26061;50.044;19.930;2022-10-17T16:27:45;18.08;;;10.60;;
40355;SDS011;26061;50.044;19.930;2022-10-17T16:30:13;17.88;;;10.73;;
40355;SDS011;26061;50.044;19.930;2022-10-17T16:32:39;21.48;;;10.07;;
40355;SDS011;26061;50.044;19.930;2022-10-17T16:35:05;20.58;;;11.02;;
40355;SDS011;26061;50.044;19.930;2022-10-17T16:37:32;17.55;;;11.05;;
40355;SDS011;26061;50.044;19.930;2022-10-17T16:39:57;17.90;;;11.32;;
40355;SDS011;26061;50.044;19.930;2022-10-17T16:42:23;18.40;;;11.32;;